createdAt,value
2023-06-22T00:00:05.983Z,79.70
2023-06-22T00:01:05.987Z,79.50
2023-06-22T00:02:05.921Z,79.80
2023-06-22T00:03:05.966Z,79.60
2023-06-22T00:04:05.929Z,79.85
2023-06-22T00:05:05.848Z,79.70
2023-06-22T00:06:05.815Z,79.70
2023-06-22T00:07:05.780Z,79.50
2023-06-22T00:08:05.791Z,79.57
2023-06-22T00:09:05.730Z,79.60
2023-06-22T00:10:05.693Z,79.60
2023-06-22T00:11:05.680Z,79.70
2023-06-22T00:12:05.638Z,79.60
2023-06-22T00:13:05.616Z,79.70
2023-06-22T00:14:05.588Z,79.80
2023-06-22T00:15:05.561Z,79.57
2023-06-22T00:16:05.531Z,79.90
2023-06-22T00:17:05.515Z,79.80
2023-06-22T00:18:05.575Z,79.70
2023-06-22T00:19:05.463Z,79.57
2023-06-22T00:20:05.452Z,79.57
2023-06-22T00:21:05.401Z,79.80
2023-06-22T00:22:05.382Z,79.80
2023-06-22T00:23:05.346Z,79.80
2023-06-22T00:24:05.312Z,79.80
2023-06-22T00:25:05.280Z,79.60
2023-06-22T00:26:05.260Z,79.70
2023-06-22T00:27:05.239Z,79.76
2023-06-22T00:28:05.213Z,79.70
2023-06-22T00:29:05.169Z,79.80
2023-06-22T00:30:05.151Z,79.70
2023-06-22T00:31:05.191Z,79.37
2023-06-22T00:32:05.093Z,79.50
2023-06-22T00:33:05.104Z,79.80
2023-06-22T00:34:05.042Z,79.60
2023-06-22T00:35:05.009Z,79.80
2023-06-22T00:36:04.975Z,79.70
2023-06-22T00:37:04.963Z,79.60
2023-06-22T00:38:04.930Z,79.90
2023-06-22T00:39:04.905Z,79.70
2023-06-22T00:40:04.886Z,79.80
2023-06-22T00:41:04.852Z,79.99
2023-06-22T00:42:04.820Z,79.50
2023-06-22T00:43:04.798Z,79.60
2023-06-22T00:44:04.770Z,79.80
2023-06-22T00:45:04.744Z,79.70
2023-06-22T00:46:04.726Z,79.80
2023-06-22T00:47:05.263Z,79.70
2023-06-22T00:48:04.728Z,79.80
2023-06-22T00:49:04.624Z,79.60
2023-06-22T00:50:04.599Z,79.70
2023-06-22T00:51:04.588Z,79.80
2023-06-22T00:52:04.542Z,79.80
2023-06-22T00:53:04.525Z,79.60
2023-06-22T00:54:04.489Z,79.60
2023-06-22T00:55:04.455Z,79.70
2023-06-22T00:56:04.435Z,79.80
2023-06-22T00:57:04.405Z,79.70
2023-06-22T00:58:04.382Z,79.70
2023-06-22T00:59:04.353Z,79.50
2023-06-22T01:00:04.321Z,79.70
2023-06-22T01:01:04.336Z,79.60
2023-06-22T01:02:04.271Z,79.99
2023-06-22T01:03:04.363Z,79.80
2023-06-22T01:04:04.294Z,79.99
2023-06-22T01:05:04.181Z,79.60
2023-06-22T01:06:04.150Z,79.90
2023-06-22T01:07:04.128Z,79.66
2023-06-22T01:08:04.100Z,79.85
2023-06-22T01:09:04.083Z,79.47
2023-06-22T01:10:04.047Z,79.76
2023-06-22T01:11:04.049Z,80.05
2023-06-22T01:12:03.990Z,80.15
2023-06-22T01:13:03.962Z,80.24
2023-06-22T01:14:03.938Z,80.15
2023-06-22T01:15:03.902Z,80.34
2023-06-22T01:16:03.901Z,80.34
2023-06-22T01:17:03.853Z,80.34
2023-06-22T01:18:03.824Z,80.44
2023-06-22T01:19:03.799Z,80.24
2023-06-22T01:20:03.780Z,80.05
2023-06-22T01:21:03.761Z,80.30
2023-06-22T01:22:03.716Z,80.49
2023-06-22T01:23:03.685Z,80.54
2023-06-22T01:24:06.397Z,80.54
2023-06-22T01:25:03.641Z,80.49
2023-06-22T01:26:03.614Z,80.59
2023-06-22T01:27:03.576Z,80.34
2023-06-22T01:28:03.544Z,80.44
2023-06-22T01:29:03.510Z,80.49
2023-06-22T01:30:03.493Z,80.63
2023-06-22T01:31:03.461Z,80.59
2023-06-22T01:32:03.445Z,80.40
2023-06-22T01:33:03.411Z,80.54
2023-06-22T01:34:03.381Z,80.59
2023-06-22T01:35:03.358Z,80.54
2023-06-22T01:36:03.345Z,80.20
2023-06-22T01:37:03.294Z,80.49
2023-06-22T01:38:03.289Z,80.40
2023-06-22T01:39:03.236Z,80.59
2023-06-22T01:40:03.217Z,80.59
2023-06-22T01:41:03.194Z,80.40
2023-06-22T01:42:03.154Z,80.49
2023-06-22T01:43:03.135Z,80.30
2023-06-22T01:44:03.102Z,80.40
2023-06-22T01:45:03.079Z,80.20
2023-06-22T01:46:03.043Z,80.79
2023-06-22T01:47:03.036Z,80.79
2023-06-22T01:48:03.049Z,80.69
2023-06-22T01:49:02.962Z,81.27
2023-06-22T01:50:02.946Z,81.17
2023-06-22T01:51:02.910Z,81.17
2023-06-22T01:52:02.881Z,80.79
2023-06-22T01:53:02.851Z,80.79
2023-06-22T01:54:02.835Z,80.98
2023-06-22T01:55:02.812Z,81.07
2023-06-22T01:56:02.775Z,81.56
2023-06-22T01:57:02.757Z,81.17
2023-06-22T01:58:02.716Z,81.37
2023-06-22T01:59:02.699Z,80.98
2023-06-22T02:00:02.662Z,80.98
2023-06-22T02:01:02.645Z,81.17
2023-06-22T02:02:02.719Z,81.46
2023-06-22T02:03:02.680Z,81.27
2023-06-22T02:04:02.693Z,81.07
2023-06-22T02:05:02.520Z,81.65
2023-06-22T02:06:02.496Z,81.85
2023-06-22T02:07:02.459Z,81.37
2023-06-22T02:08:02.434Z,80.98
2023-06-22T02:09:02.465Z,80.88
2023-06-22T02:10:02.378Z,81.65
2023-06-22T02:11:02.358Z,81.65
2023-06-22T02:12:02.355Z,81.07
2023-06-22T02:13:02.363Z,81.07
2023-06-22T02:14:02.268Z,81.07
2023-06-22T02:15:02.241Z,81.27
2023-06-22T02:16:02.224Z,80.98
2023-06-22T02:17:02.211Z,81.37
2023-06-22T02:18:02.177Z,80.98
2023-06-22T02:19:02.123Z,81.07
2023-06-22T02:20:02.126Z,81.42
2023-06-22T02:21:02.069Z,80.88
2023-06-22T02:22:02.050Z,80.98
2023-06-22T02:23:02.014Z,81.65
2023-06-22T02:24:01.986Z,81.56
2023-06-22T02:25:01.958Z,81.46
2023-06-22T02:26:01.949Z,81.37
2023-06-22T02:27:01.902Z,81.42
2023-06-22T02:28:01.882Z,81.42
2023-06-22T02:29:01.863Z,81.71
2023-06-22T02:30:01.828Z,81.81
2023-06-22T02:31:01.902Z,81.90
2023-06-22T02:32:01.870Z,81.81
2023-06-22T02:33:01.765Z,81.62
2023-06-22T02:34:01.703Z,81.71
2023-06-22T02:35:01.681Z,81.62
2023-06-22T02:36:01.659Z,81.62
2023-06-22T02:37:01.622Z,81.37
2023-06-22T02:38:01.603Z,81.52
2023-06-22T02:39:01.571Z,81.62
2023-06-22T02:40:01.541Z,81.71
2023-06-22T02:41:01.508Z,81.27
2023-06-22T02:42:01.500Z,81.52
2023-06-22T02:43:01.477Z,81.62
2023-06-22T02:44:01.427Z,81.13
2023-06-22T02:45:01.428Z,81.52
2023-06-22T02:46:01.380Z,81.65
2023-06-22T02:47:01.356Z,81.62
2023-06-22T02:48:01.442Z,81.13
2023-06-22T02:49:01.285Z,81.23
2023-06-22T02:50:01.307Z,81.52
2023-06-22T02:51:01.234Z,81.65
2023-06-22T02:52:01.237Z,81.65
2023-06-22T02:53:01.196Z,81.23
2023-06-22T02:54:01.151Z,80.94
2023-06-22T02:55:01.119Z,81.65
2023-06-22T02:56:01.100Z,81.37
2023-06-22T02:57:01.078Z,81.46
2023-06-22T02:58:01.227Z,81.85
2023-06-22T02:59:01.017Z,81.95
2023-06-22T03:00:00.980Z,81.95
2023-06-22T03:01:01.005Z,81.56
2023-06-22T03:02:00.932Z,82.29
2023-06-22T03:03:01.178Z,82.58
2023-06-22T03:04:00.940Z,82.78
2023-06-22T03:05:00.844Z,82.10
2023-06-22T03:06:00.813Z,83.16
2023-06-22T03:07:00.785Z,83.06
2023-06-22T03:08:00.781Z,82.97
2023-06-22T03:09:00.734Z,83.16
2023-06-22T03:10:00.714Z,83.16
2023-06-22T03:11:00.679Z,83.06
2023-06-22T03:12:00.646Z,82.97
2023-06-22T03:13:00.621Z,83.16
2023-06-22T03:14:00.595Z,82.97
2023-06-22T03:15:00.565Z,82.78
2023-06-22T03:16:00.539Z,82.87
2023-06-22T03:17:00.501Z,82.97
2023-06-22T03:18:00.555Z,83.06
2023-06-22T03:19:00.461Z,82.87
2023-06-22T03:20:00.420Z,83.26
2023-06-22T03:21:00.398Z,83.16
2023-06-22T03:22:00.363Z,83.64
2023-06-22T03:23:00.345Z,82.87
2023-06-22T03:24:00.310Z,83.16
2023-06-22T03:25:00.298Z,83.36
2023-06-22T03:26:00.254Z,83.26
2023-06-22T03:27:00.232Z,84.13
2023-06-22T03:28:00.208Z,84.22
2023-06-22T03:29:00.174Z,84.80
2023-06-22T03:30:00.815Z,85.39
2023-06-22T03:31:00.122Z,85.48
2023-06-22T03:33:00.124Z,86.25
2023-06-22T03:34:00.042Z,86.35
2023-06-22T03:35:00.013Z,87.13
2023-06-22T03:35:59.980Z,87.23
2023-06-22T03:36:59.948Z,87.13
2023-06-22T03:37:59.922Z,87.51
2023-06-22T03:38:59.894Z,87.41
2023-06-22T03:39:59.869Z,87.51
2023-06-22T03:40:59.835Z,87.41
2023-06-22T03:41:59.808Z,87.13
2023-06-22T03:42:59.785Z,87.03
2023-06-22T03:43:59.752Z,87.03
2023-06-22T03:44:59.727Z,87.13
2023-06-22T03:45:59.726Z,86.65
2023-06-22T03:46:59.669Z,86.74
2023-06-22T03:47:59.655Z,86.65
2023-06-22T03:48:59.634Z,86.25
2023-06-22T03:49:59.603Z,86.74
2023-06-22T03:50:59.556Z,86.25
2023-06-22T03:51:59.520Z,85.97
2023-06-22T03:52:59.496Z,86.16
2023-06-22T03:53:59.469Z,85.97
2023-06-22T03:54:59.443Z,86.16
2023-06-22T03:55:59.419Z,86.25
2023-06-22T03:56:59.388Z,86.40
2023-06-22T03:57:59.350Z,86.55
2023-06-22T03:58:59.326Z,87.41
2023-06-22T03:59:59.291Z,87.23
2023-06-22T04:00:59.282Z,87.03
2023-06-22T04:01:59.238Z,87.03
2023-06-22T04:02:59.273Z,87.03
2023-06-22T04:03:59.296Z,86.55
2023-06-22T04:05:00.409Z,87.03
2023-06-22T04:05:59.131Z,87.23
2023-06-22T04:06:59.120Z,86.55
2023-06-22T04:07:59.072Z,86.65
2023-06-22T04:08:59.056Z,86.55
2023-06-22T04:09:59.018Z,86.45
2023-06-22T04:10:59.010Z,86.35
2023-06-22T04:11:58.964Z,86.35
2023-06-22T04:12:58.935Z,85.97
2023-06-22T04:13:58.922Z,85.97
2023-06-22T04:14:58.878Z,85.97
2023-06-22T04:15:58.841Z,85.97
2023-06-22T04:16:58.816Z,85.68
2023-06-22T04:17:58.932Z,85.68
2023-06-22T04:18:58.772Z,85.19
2023-06-22T04:19:58.735Z,85.48
2023-06-22T04:20:58.714Z,85.29
2023-06-22T04:21:58.689Z,85.05
2023-06-22T04:22:58.651Z,86.16
2023-06-22T04:23:58.620Z,86.89
2023-06-22T04:24:58.609Z,89.31
2023-06-22T04:25:58.625Z,89.84
2023-06-22T04:26:58.612Z,90.23
2023-06-22T04:27:58.630Z,90.52
2023-06-22T04:28:58.484Z,90.23
2023-06-22T04:29:58.453Z,90.13
2023-06-22T04:30:58.438Z,90.42
2023-06-22T04:31:58.474Z,90.13
2023-06-22T04:32:58.392Z,90.42
2023-06-22T04:33:58.337Z,90.13
2023-06-22T04:34:58.311Z,90.23
2023-06-22T04:35:58.281Z,90.33
2023-06-22T04:36:58.262Z,89.94
2023-06-22T04:37:58.229Z,90.42
2023-06-22T04:38:58.198Z,90.33
2023-06-22T04:39:58.172Z,90.13
2023-06-22T04:40:58.145Z,90.27
2023-06-22T04:41:58.110Z,90.47
2023-06-22T04:42:58.095Z,90.47
2023-06-22T04:43:58.067Z,90.47
2023-06-22T04:44:59.952Z,90.27
2023-06-22T04:45:57.993Z,90.37
2023-06-22T04:46:57.969Z,90.75
2023-06-22T04:47:57.970Z,90.85
2023-06-22T04:48:57.923Z,91.09
2023-06-22T04:49:57.888Z,91.14
2023-06-22T04:50:57.887Z,91.09
2023-06-22T04:51:57.822Z,91.00
2023-06-22T04:52:57.811Z,90.81
2023-06-22T04:53:57.780Z,90.81
2023-06-22T04:54:57.753Z,91.09
2023-06-22T04:55:57.714Z,90.81
2023-06-22T04:56:57.740Z,91.09
2023-06-22T04:57:57.659Z,91.00
2023-06-22T04:58:57.630Z,90.61
2023-06-22T04:59:57.597Z,90.81
2023-06-22T05:00:57.579Z,90.23
2023-06-22T05:01:57.541Z,89.65
2023-06-22T05:03:07.033Z,90.03
2023-06-22T05:03:57.614Z,90.23
2023-06-22T05:04:57.594Z,90.17
2023-06-22T05:05:57.442Z,89.84
2023-06-22T05:06:57.413Z,89.59
2023-06-22T05:07:57.370Z,90.03
2023-06-22T05:08:57.353Z,89.94
2023-06-22T05:09:57.321Z,90.81
2023-06-22T05:11:05.105Z,90.71
2023-06-22T05:11:57.265Z,90.52
2023-06-22T05:12:57.239Z,90.71
2023-06-22T05:13:57.213Z,90.71
2023-06-22T05:14:57.177Z,91.09
2023-06-22T05:15:57.160Z,91.19
2023-06-22T05:16:57.120Z,91.00
2023-06-22T05:17:57.168Z,91.00
2023-06-22T05:18:57.126Z,90.95
2023-06-22T05:19:57.036Z,91.00
2023-06-22T05:20:57.014Z,91.63
2023-06-22T05:21:56.989Z,91.53
2023-06-22T05:22:56.948Z,91.53
2023-06-22T05:23:56.925Z,91.24
2023-06-22T05:24:57.186Z,90.95
2023-06-22T05:25:56.870Z,91.05
2023-06-22T05:26:56.842Z,90.27
2023-06-22T05:27:56.805Z,90.56
2023-06-22T05:28:56.788Z,90.75
2023-06-22T05:29:56.765Z,90.61
2023-06-22T05:30:56.756Z,90.91
2023-06-22T05:31:56.750Z,90.61
2023-06-22T05:32:56.706Z,90.66
2023-06-22T05:33:56.640Z,90.66
2023-06-22T05:34:56.614Z,90.56
2023-06-22T05:35:56.582Z,90.95
2023-06-22T05:36:57.240Z,91.53
2023-06-22T05:37:56.548Z,91.97
2023-06-22T05:38:56.512Z,92.07
2023-06-22T05:39:56.469Z,91.91
2023-06-22T05:40:56.445Z,91.39
2023-06-22T05:41:56.460Z,91.91
2023-06-22T05:42:56.385Z,91.63
2023-06-22T05:43:56.357Z,91.82
2023-06-22T05:44:56.339Z,91.53
2023-06-22T05:45:56.294Z,90.85
2023-06-22T05:46:56.312Z,91.05
2023-06-22T05:47:56.279Z,91.33
2023-06-22T05:48:56.216Z,90.17
2023-06-22T05:49:56.234Z,89.89
2023-06-22T05:50:56.162Z,89.98
2023-06-22T05:51:56.129Z,89.98
2023-06-22T05:52:56.109Z,89.59
2023-06-22T05:53:56.100Z,89.11
2023-06-22T05:54:56.056Z,89.79
2023-06-22T05:55:56.019Z,89.59
2023-06-22T05:56:56.009Z,89.98
2023-06-22T05:57:55.959Z,89.59
2023-06-22T05:58:55.925Z,89.40
2023-06-22T05:59:55.895Z,89.11
2023-06-22T06:00:55.893Z,88.92
2023-06-22T06:01:55.916Z,88.73
2023-06-22T06:02:55.851Z,89.50
2023-06-22T06:03:55.837Z,88.77
2023-06-22T06:04:55.756Z,88.96
2023-06-22T06:05:55.732Z,89.15
2023-06-22T06:06:55.716Z,88.48
2023-06-22T06:07:55.674Z,88.96
2023-06-22T06:08:55.647Z,88.39
2023-06-22T06:09:55.716Z,88.29
2023-06-22T06:10:55.597Z,88.19
2023-06-22T06:11:55.559Z,87.81
2023-06-22T06:12:55.566Z,87.81
2023-06-22T06:13:55.509Z,88.39
2023-06-22T06:14:55.476Z,87.81
2023-06-22T06:15:55.446Z,87.81
2023-06-22T06:16:55.424Z,87.51
2023-06-22T06:17:55.438Z,87.71
2023-06-22T06:18:55.362Z,87.61
2023-06-22T06:19:55.335Z,87.90
2023-06-22T06:20:55.308Z,87.65
2023-06-22T06:21:55.289Z,87.55
2023-06-22T06:22:55.257Z,87.95
2023-06-22T06:23:55.237Z,87.95
2023-06-22T06:24:55.207Z,87.85
2023-06-22T06:25:55.176Z,87.46
2023-06-22T06:26:55.149Z,87.17
2023-06-22T06:27:55.108Z,87.07
2023-06-22T06:28:55.090Z,86.69
2023-06-22T06:29:55.061Z,86.78
2023-06-22T06:30:55.027Z,87.41
2023-06-22T06:31:55.212Z,87.31
2023-06-22T06:32:55.016Z,86.54
2023-06-22T06:33:54.973Z,86.82
2023-06-22T06:34:54.924Z,87.02
2023-06-22T06:35:54.892Z,86.82
2023-06-22T06:36:54.908Z,86.92
2023-06-22T06:37:54.840Z,86.54
2023-06-22T06:38:54.806Z,86.54
2023-06-22T06:39:54.779Z,86.34
2023-06-22T06:40:54.765Z,86.48
2023-06-22T06:41:54.732Z,86.68
2023-06-22T06:42:54.694Z,86.87
2023-06-22T06:43:54.674Z,86.58
2023-06-22T06:44:54.741Z,86.29
2023-06-22T06:45:54.660Z,86.09
2023-06-22T06:46:54.589Z,86.19
2023-06-22T06:47:54.639Z,86.00
2023-06-22T06:48:54.530Z,86.29
2023-06-22T06:49:54.518Z,85.90
2023-06-22T06:50:54.474Z,86.29
2023-06-22T06:51:54.452Z,86.19
2023-06-22T06:52:54.432Z,86.48
2023-06-22T06:53:54.397Z,86.19
2023-06-22T06:54:54.377Z,86.19
2023-06-22T06:55:54.345Z,86.19
2023-06-22T06:56:54.367Z,85.94
2023-06-22T06:57:54.283Z,86.13
2023-06-22T06:58:54.267Z,86.52
2023-06-22T06:59:54.255Z,86.62
2023-06-22T07:00:54.336Z,86.33
2023-06-22T07:01:54.256Z,86.43
2023-06-22T07:02:54.207Z,86.62
2023-06-22T07:03:54.137Z,86.62
2023-06-22T07:04:54.098Z,86.91
2023-06-22T07:05:54.068Z,86.91
2023-06-22T07:06:54.041Z,86.72
2023-06-22T07:07:54.013Z,86.91
2023-06-22T07:08:53.990Z,86.52
2023-06-22T07:09:53.964Z,87.10
2023-06-22T07:10:53.937Z,87.05
2023-06-22T07:11:53.901Z,86.95
2023-06-22T07:12:53.883Z,86.95
2023-06-22T07:13:53.864Z,86.86
2023-06-22T07:14:53.833Z,87.15
2023-06-22T07:15:53.794Z,86.76
2023-06-22T07:16:53.798Z,86.66
2023-06-22T07:17:53.786Z,86.95
2023-06-22T07:18:53.718Z,86.95
2023-06-22T07:19:53.687Z,87.05
2023-06-22T07:20:53.676Z,87.05
2023-06-22T07:21:53.629Z,87.54
2023-06-22T07:22:53.614Z,86.86
2023-06-22T07:23:53.581Z,86.76
2023-06-22T07:24:53.568Z,86.95
2023-06-22T07:25:53.526Z,87.44
2023-06-22T07:26:53.506Z,87.44
2023-06-22T07:27:53.485Z,87.44
2023-06-22T07:28:53.442Z,87.54
2023-06-22T07:29:53.414Z,87.34
2023-06-22T07:30:53.435Z,87.63
2023-06-22T07:31:53.417Z,87.82
2023-06-22T07:32:53.451Z,87.05
2023-06-22T07:33:53.307Z,87.24
2023-06-22T07:34:53.297Z,87.15
2023-06-22T07:35:53.252Z,86.76
2023-06-22T07:36:53.232Z,86.90
2023-06-22T07:37:53.200Z,86.99
2023-06-22T07:38:53.179Z,87.09
2023-06-22T07:39:53.148Z,87.29
2023-06-22T07:40:53.121Z,86.99
2023-06-22T07:41:53.108Z,87.48
2023-06-22T07:42:53.063Z,87.68
2023-06-22T07:43:53.057Z,87.87
2023-06-22T07:44:53.016Z,87.68
2023-06-22T07:45:53.015Z,87.68
2023-06-22T07:46:52.989Z,87.09
2023-06-22T07:47:52.981Z,86.90
2023-06-22T07:48:54.861Z,86.80
2023-06-22T07:49:52.885Z,86.99
2023-06-22T07:50:52.861Z,86.99
2023-06-22T07:51:52.827Z,86.61
2023-06-22T07:52:52.804Z,86.65
2023-06-22T07:53:52.779Z,87.13
2023-06-22T07:54:52.751Z,86.94
2023-06-22T07:55:52.731Z,86.94
2023-06-22T07:56:52.697Z,86.65
2023-06-22T07:57:52.684Z,86.65
2023-06-22T07:58:52.644Z,87.04
2023-06-22T07:59:52.630Z,87.23
2023-06-22T08:00:52.591Z,86.65
2023-06-22T08:01:52.697Z,86.36
2023-06-22T08:02:52.630Z,86.26
2023-06-22T08:03:52.654Z,85.78
2023-06-22T08:04:53.636Z,85.88
2023-06-22T08:05:52.459Z,86.01
2023-06-22T08:06:52.430Z,85.63
2023-06-22T08:07:52.408Z,85.43
2023-06-22T08:08:52.386Z,85.43
2023-06-22T08:09:52.361Z,85.04
2023-06-22T08:10:52.322Z,85.92
2023-06-22T08:11:52.300Z,85.72
2023-06-22T08:12:52.268Z,85.63
2023-06-22T08:13:52.253Z,85.92
2023-06-22T08:14:52.219Z,85.92
2023-06-22T08:15:52.198Z,85.92
2023-06-22T08:16:52.159Z,86.01
2023-06-22T08:17:52.153Z,85.82
2023-06-22T08:18:52.115Z,85.72
2023-06-22T08:19:52.078Z,85.47
2023-06-22T08:20:52.078Z,85.47
2023-06-22T08:21:52.054Z,84.99
2023-06-22T08:22:52.007Z,85.43
2023-06-22T08:23:51.979Z,85.33
2023-06-22T08:24:51.971Z,85.77
2023-06-22T08:25:51.928Z,85.86
2023-06-22T08:26:51.926Z,85.86
2023-06-22T08:27:51.872Z,85.77
2023-06-22T08:28:51.870Z,85.67
2023-06-22T08:29:51.844Z,86.25
2023-06-22T08:30:51.793Z,86.05
2023-06-22T08:31:51.790Z,86.05
2023-06-22T08:32:51.778Z,85.96
2023-06-22T08:33:51.872Z,86.35
2023-06-22T08:34:51.716Z,85.67
2023-06-22T08:35:51.662Z,85.77
2023-06-22T08:36:51.635Z,86.25
2023-06-22T08:37:51.642Z,85.77
2023-06-22T08:38:51.587Z,86.00
2023-06-22T08:39:51.552Z,86.10
2023-06-22T08:40:51.533Z,85.61
2023-06-22T08:41:51.504Z,85.71
2023-06-22T08:42:51.482Z,86.58
2023-06-22T08:43:51.460Z,86.19
2023-06-22T08:44:51.438Z,85.52
2023-06-22T08:45:51.396Z,85.81
2023-06-22T08:46:52.372Z,85.17
2023-06-22T08:47:51.384Z,85.17
2023-06-22T08:48:51.326Z,85.07
2023-06-22T08:49:51.304Z,83.91
2023-06-22T08:50:51.301Z,84.30
2023-06-22T08:51:51.253Z,84.78
2023-06-22T08:52:51.247Z,85.27
2023-06-22T08:53:51.209Z,84.10
2023-06-22T08:54:51.169Z,84.20
2023-06-22T08:55:51.138Z,84.39
2023-06-22T08:56:51.119Z,84.30
2023-06-22T08:57:51.096Z,84.23
2023-06-22T08:58:51.070Z,84.92
2023-06-22T08:59:51.051Z,84.72
2023-06-22T09:00:51.017Z,84.23
2023-06-22T09:01:50.989Z,83.56
2023-06-22T09:02:51.158Z,84.05
2023-06-22T09:03:51.123Z,84.92
2023-06-22T09:04:51.053Z,84.82
2023-06-22T09:05:50.907Z,84.05
2023-06-22T09:06:50.865Z,83.65
2023-06-22T09:07:50.838Z,83.46
2023-06-22T09:08:50.846Z,83.56
2023-06-22T09:09:50.788Z,83.75
2023-06-22T09:10:50.756Z,84.43
2023-06-22T09:11:50.743Z,83.85
2023-06-22T09:12:50.712Z,83.75
2023-06-22T09:13:50.682Z,83.50
2023-06-22T09:14:50.688Z,83.07
2023-06-22T09:15:50.644Z,83.21
2023-06-22T09:16:50.614Z,83.01
2023-06-22T09:17:50.605Z,83.21
2023-06-22T09:18:50.559Z,83.01
2023-06-22T09:19:50.538Z,83.21
2023-06-22T09:20:50.513Z,82.72
2023-06-22T09:21:50.485Z,83.01
2023-06-22T09:22:50.494Z,83.40
2023-06-22T09:23:50.439Z,82.92
2023-06-22T09:24:50.424Z,83.50
2023-06-22T09:25:50.393Z,83.01
2023-06-22T09:26:50.366Z,82.72
2023-06-22T09:27:50.346Z,82.43
2023-06-22T09:28:50.311Z,82.62
2023-06-22T09:29:50.291Z,82.37
2023-06-22T09:30:50.259Z,82.76
2023-06-22T09:31:50.267Z,82.37
2023-06-22T09:32:50.233Z,82.76
2023-06-22T09:33:50.187Z,82.76
2023-06-22T09:34:50.165Z,82.67
2023-06-22T09:35:50.132Z,83.34
2023-06-22T09:36:50.110Z,83.29
2023-06-22T09:37:50.078Z,82.41
2023-06-22T09:38:50.050Z,81.83
2023-06-22T09:39:50.039Z,81.83
2023-06-22T09:40:50.191Z,81.15
2023-06-22T09:41:49.989Z,81.15
2023-06-22T09:42:49.955Z,81.93
2023-06-22T09:43:49.950Z,81.24
2023-06-22T09:44:49.907Z,80.99
2023-06-22T09:45:49.933Z,80.95
2023-06-22T09:46:49.860Z,81.18
2023-06-22T09:47:49.913Z,80.60
2023-06-22T09:48:49.806Z,80.66
2023-06-22T09:49:49.789Z,80.76
2023-06-22T09:50:49.755Z,80.56
2023-06-22T09:51:49.737Z,80.56
2023-06-22T09:52:49.711Z,80.56
2023-06-22T09:53:49.697Z,81.05
2023-06-22T09:54:49.681Z,81.15
2023-06-22T09:55:50.959Z,80.85
2023-06-22T09:56:49.674Z,80.85
2023-06-22T09:57:49.586Z,81.01
2023-06-22T09:58:49.578Z,81.01
2023-06-22T09:59:50.976Z,81.10
2023-06-22T10:00:49.507Z,81.10
2023-06-22T10:01:49.489Z,81.69
2023-06-22T10:02:49.678Z,81.10
2023-06-22T10:03:49.633Z,81.40
2023-06-22T10:04:49.495Z,82.47
2023-06-22T10:05:49.379Z,85.10
2023-06-22T10:06:49.351Z,85.97
2023-06-22T10:07:49.339Z,86.07
2023-06-22T10:08:49.343Z,87.98
2023-06-22T10:09:49.283Z,88.56
2023-06-22T10:10:49.619Z,88.56
2023-06-22T10:11:49.237Z,90.22
2023-06-22T10:12:49.247Z,90.41
2023-06-22T10:13:49.182Z,89.98
2023-06-22T10:14:49.154Z,91.34
2023-06-22T10:15:49.131Z,92.41
2023-06-22T10:16:49.148Z,93.19
2023-06-22T10:17:49.106Z,93.09
2023-06-22T10:18:49.062Z,93.38
2023-06-22T10:19:49.047Z,93.24
2023-06-22T10:20:49.004Z,93.82
2023-06-22T10:21:48.980Z,94.50
2023-06-22T10:22:48.954Z,95.23
2023-06-22T10:23:48.922Z,95.38
2023-06-22T10:24:48.923Z,95.04
2023-06-22T10:25:48.873Z,95.14
2023-06-22T10:26:48.854Z,95.81
2023-06-22T10:27:48.817Z,96.11
2023-06-22T10:28:48.836Z,95.67
2023-06-22T10:29:48.783Z,96.94
2023-06-22T10:30:48.855Z,96.21
2023-06-22T10:31:48.727Z,96.21
2023-06-22T10:32:48.784Z,95.62
2023-06-22T10:33:48.659Z,96.31
2023-06-22T10:34:48.638Z,97.13
2023-06-22T10:35:48.608Z,97.03
2023-06-22T10:36:48.597Z,96.31
2023-06-22T10:37:48.565Z,96.11
2023-06-22T10:38:48.534Z,97.08
2023-06-22T10:39:48.512Z,96.45
2023-06-22T10:40:48.477Z,96.06
2023-06-22T10:41:48.443Z,96.26
2023-06-22T10:42:48.423Z,95.48
2023-06-22T10:43:48.393Z,95.43
2023-06-22T10:44:48.379Z,95.25
2023-06-22T10:45:48.340Z,94.66
2023-06-22T10:46:48.312Z,94.47
2023-06-22T10:47:48.357Z,93.65
2023-06-22T10:48:48.256Z,93.02
2023-06-22T10:49:48.237Z,92.97
2023-06-22T10:50:48.243Z,93.16
2023-06-22T10:51:48.174Z,93.84
2023-06-22T10:52:48.152Z,93.12
2023-06-22T10:53:48.115Z,92.44
2023-06-22T10:54:48.094Z,92.15
2023-06-22T10:55:57.236Z,91.18
2023-06-22T10:56:48.037Z,90.70
2023-06-22T10:57:48.202Z,91.28
2023-06-22T10:58:47.973Z,89.29
2023-06-22T10:59:47.939Z,88.76
2023-06-22T11:00:47.931Z,89.39
2023-06-22T11:01:47.935Z,88.71
2023-06-22T11:02:48.114Z,89.39
2023-06-22T11:03:47.862Z,88.71
2023-06-22T11:04:47.826Z,87.85
2023-06-22T11:05:47.775Z,88.43
2023-06-22T11:06:47.753Z,87.46
2023-06-22T11:07:47.733Z,86.98
2023-06-22T11:08:57.708Z,85.52
2023-06-22T11:09:47.665Z,85.33
2023-06-22T11:10:47.633Z,85.04
2023-06-22T11:11:47.604Z,84.46
2023-06-22T11:12:47.584Z,84.08
2023-06-22T11:13:47.548Z,83.69
2023-06-22T11:14:47.521Z,83.40
2023-06-22T11:15:47.491Z,82.43
2023-06-22T11:16:47.463Z,82.53
2023-06-22T11:17:47.445Z,82.04
2023-06-22T11:18:47.410Z,81.17
2023-06-22T11:19:47.390Z,81.85
2023-06-22T11:20:47.356Z,81.27
2023-06-22T11:21:47.341Z,81.07
2023-06-22T11:22:47.313Z,80.11
2023-06-22T11:23:47.260Z,79.91
2023-06-22T11:24:47.237Z,79.91
2023-06-22T11:25:47.205Z,79.91
2023-06-22T11:26:47.192Z,79.04
2023-06-22T11:27:47.958Z,79.52
2023-06-22T11:28:47.117Z,78.99
2023-06-22T11:29:47.096Z,79.57
2023-06-22T11:30:47.089Z,79.17
2023-06-22T11:31:47.121Z,79.76
2023-06-22T11:32:47.143Z,79.60
2023-06-22T11:33:46.995Z,79.80
2023-06-22T11:34:46.960Z,81.93
2023-06-22T11:35:46.929Z,81.64
2023-06-22T11:36:46.942Z,83.00
2023-06-22T11:37:46.870Z,84.69
2023-06-22T11:38:46.865Z,85.37
2023-06-22T11:40:46.789Z,85.08
2023-06-22T11:41:46.760Z,85.28
2023-06-22T11:42:46.736Z,84.60
2023-06-22T11:43:46.712Z,84.83
2023-06-22T11:44:46.686Z,85.22
2023-06-22T11:45:46.647Z,85.03
2023-06-22T11:46:46.627Z,84.35
2023-06-22T11:47:46.722Z,81.73
2023-06-22T11:48:46.618Z,80.19
2023-06-22T11:49:46.539Z,79.12
2023-06-22T11:50:46.519Z,78.38
2023-06-22T11:51:46.488Z,80.13
2023-06-22T11:52:46.455Z,83.13
2023-06-22T11:53:46.432Z,83.62
2023-06-22T11:54:46.395Z,84.78
2023-06-22T11:55:46.388Z,84.97
2023-06-22T11:56:46.362Z,85.46
2023-06-22T11:57:46.313Z,86.62
2023-06-22T11:58:46.292Z,87.68
2023-06-22T11:59:46.274Z,87.78
2023-06-22T12:00:51.540Z,87.88
2023-06-22T12:01:46.212Z,86.95
2023-06-22T12:02:46.515Z,87.34
2023-06-22T12:03:46.205Z,90.16
2023-06-22T12:04:46.176Z,89.18
2023-06-22T12:05:46.127Z,88.79
2023-06-22T12:06:46.067Z,88.70
2023-06-22T12:07:46.041Z,89.86
2023-06-22T12:08:46.025Z,90.34
2023-06-22T12:09:45.988Z,91.02
2023-06-22T12:10:45.957Z,89.96
2023-06-22T12:11:45.930Z,91.51
2023-06-22T12:12:45.903Z,91.41
2023-06-22T12:13:45.882Z,91.65
2023-06-22T12:14:45.851Z,91.17
2023-06-22T12:15:45.828Z,91.94
2023-06-22T12:16:45.802Z,92.43
2023-06-22T12:17:45.790Z,92.04
2023-06-22T12:18:45.752Z,92.43
2023-06-22T12:19:45.719Z,92.52
2023-06-22T12:20:45.697Z,92.52
2023-06-22T12:21:45.671Z,91.75
2023-06-22T12:22:45.634Z,92.62
2023-06-22T12:23:45.608Z,92.82
2023-06-22T12:24:45.577Z,93.40
2023-06-22T12:25:45.554Z,93.01
2023-06-22T12:26:45.524Z,93.40
2023-06-22T12:27:45.501Z,93.63
2023-06-22T12:28:45.493Z,93.25
2023-06-22T12:29:45.460Z,94.60
2023-06-22T12:30:45.424Z,93.98
2023-06-22T12:31:45.475Z,94.37
2023-06-22T12:32:45.392Z,94.37
2023-06-22T12:33:45.361Z,94.07
2023-06-22T12:34:45.314Z,93.54
2023-06-22T12:35:45.284Z,93.83
2023-06-22T12:36:45.514Z,94.70
2023-06-22T12:37:45.289Z,94.22
2023-06-22T12:38:45.208Z,93.93
2023-06-22T12:39:45.187Z,94.22
2023-06-22T12:40:45.145Z,94.02
2023-06-22T12:41:45.164Z,94.32
2023-06-22T12:42:45.113Z,94.42
2023-06-22T12:43:45.066Z,94.22
2023-06-22T12:44:45.091Z,93.83
2023-06-22T12:45:45.016Z,94.65
2023-06-22T12:46:44.993Z,94.12
2023-06-22T12:47:45.002Z,93.83
2023-06-22T12:48:44.955Z,94.42
2023-06-22T12:49:44.920Z,94.90
2023-06-22T12:50:44.900Z,94.60
2023-06-22T12:51:44.884Z,94.56
2023-06-22T12:52:44.929Z,94.51
2023-06-22T12:53:44.816Z,95.00